Time;durP1;ratioP1;P1;durP2;ratioP2;P2;SDS_P1;SDS_P2;PMS_P1;PMS_P2;Temp;Humidity;BMP_temperature;BMP_pressure;BME280_temperature;BME280_humidity;BME280_pressure;Samples;Min_cycle;Max_cycle;Signal;HPM_P1;HPM_P2
2022/01/17 00:02:24;;;;;;;42.42;13.20;;;;;;;-2.47;100.00;100543.50;6306373;28;20408;-72
2022/01/17 00:05:26;;;;;;;56.63;15.88;;;;;;;-2.38;100.00;100542.69;6324107;28;20050;-72
2022/01/17 00:08:27;;;;;;;53.40;17.92;;;;;;;-2.40;100.00;100544.38;6324250;28;20439;-73
2022/01/17 00:11:28;;;;;;;58.65;15.90;;;;;;;-2.28;100.00;100541.81;6323357;28;20040;-69
2022/01/17 00:14:34;;;;;;;58.10;15.23;;;;;;;-2.33;100.00;100538.41;6322799;28;20072;-70
2022/01/17 00:17:39;;;;;;;65.30;16.67;;;;;;;-2.32;100.00;100550.34;6321953;28;20067;-69
2022/01/17 00:20:47;;;;;;;49.35;17.38;;;;;;;-2.27;100.00;100558.84;6321381;28;20089;-69
2022/01/17 00:23:49;;;;;;;59.22;18.02;;;;;;;-2.25;100.00;100560.53;6323628;28;20048;-73
2022/01/17 00:26:52;;;;;;;49.42;16.27;;;;;;;-2.37;100.00;100547.78;6322114;28;20040;-73
2022/01/17 00:29:53;;;;;;;57.58;18.30;;;;;;;-2.36;100.00;100549.50;6305557;28;20040;-73
2022/01/17 00:32:53;;;;;;;56.67;16.52;;;;;;;-2.39;100.00;100554.59;6323185;28;20143;-73
2022/01/17 00:35:54;;;;;;;51.72;18.27;;;;;;;-2.21;100.00;100560.56;6305427;28;20043;-69
2022/01/17 00:38:55;;;;;;;62.33;18.17;;;;;;;-2.27;100.00;100558.84;6321956;28;20085;-69
2022/01/17 00:41:55;;;;;;;52.55;16.63;;;;;;;-2.33;100.00;100548.63;6322070;28;20039;-69
2022/01/17 00:44:56;;;;;;;60.33;18.80;;;;;;;-2.28;100.00;100547.78;6321997;28;20040;-69
2022/01/17 00:48:00;;;;;;;59.60;19.05;;;;;;;-2.15;100.00;100558.84;6305272;28;20036;-69
2022/01/17 00:51:01;;;;;;;60.05;18.23;;;;;;;-2.15;100.00;100556.28;6321897;28;20051;-69
2022/01/17 00:54:01;;;;;;;63.00;19.30;;;;;;;-2.25;100.00;100555.44;6322740;28;20052;-73
2022/01/17 00:57:03;;;;;;;60.00;20.80;;;;;;;-2.22;100.00;100549.50;6321991;28;20055;-69
2022/01/17 01:00:05;;;;;;;58.55;20.08;;;;;;;-2.25;100.00;100545.22;6322825;28;20048;-68
2022/01/17 01:03:07;;;;;;;;;;;;;;;-2.21;100.00;100553.72;6321969;28;20044;-68
2022/01/17 01:06:08;;;;;;;65.28;19.38;;;;;;;-2.25;100.00;100563.09;6322649;28;20343;-69
2022/01/17 01:09:09;;;;;;;68.85;21.45;;;;;;;-2.33;100.00;100572.47;6287167;28;20081;-70
2022/01/17 01:12:10;;;;;;;56.88;20.05;;;;;;;-2.25;100.00;100569.94;6304412;28;20491;-73
2022/01/17 01:15:18;;;;;;;69.78;21.50;;;;;;;-2.29;100.00;100551.19;6322664;28;20044;-69
2022/01/17 01:18:37;;;;;;;68.95;22.05;;;;;;;-2.16;100.00;100543.50;6322350;28;20044;-73
2022/01/17 01:28:16;;;;;;;55.60;18.50;;;;;;;-2.25;100.00;100534.97;6306843;28;20047;-70
2022/01/17 01:31:27;;;;;;;61.72;20.73;;;;;;;-2.25;100.00;100526.47;6320813;28;20113;-69
2022/01/17 01:34:39;;;;;;;56.05;20.02;;;;;;;-2.23;100.00;100525.59;6321916;28;20036;-69
2022/01/17 01:37:40;;;;;;;60.07;20.43;;;;;;;-2.27;100.00;100523.91;6320835;28;20071;-73
2022/01/17 01:40:41;;;;;;;53.38;19.13;;;;;;;-2.18;100.00;100512.84;6321951;28;20043;-73
2022/01/17 01:43:41;;;;;;;54.42;19.98;;;;;;;-2.21;100.00;100504.31;6320475;28;20043;-69
2022/01/17 01:46:44;;;;;;;54.97;19.85;;;;;;;-2.19;100.00;100492.38;6320588;28;20036;-73
2022/01/17 01:49:44;;;;;;;69.63;22.40;;;;;;;-2.18;100.00;100504.28;6320351;28;20040;-73
2022/01/17 01:52:46;;;;;;;68.80;22.35;;;;;;;-2.19;100.00;100502.59;6321389;28;20048;-73
2022/01/17 01:55:46;;;;;;;53.45;20.10;;;;;;;-2.18;100.00;100506.84;6320319;28;20050;-72
2022/01/17 01:58:47;;;;;;;66.38;21.23;;;;;;;-2.20;100.00;100501.75;6303397;28;20435;-73
2022/01/17 02:01:49;;;;;;;66.13;22.67;;;;;;;-2.20;100.00;100483.00;6321446;28;20040;-72
2022/01/17 02:04:50;;;;;;;61.55;21.75;;;;;;;-2.24;100.00;100490.69;6321206;28;20040;-73
2022/01/17 02:07:51;;;;;;;57.10;20.38;;;;;;;-2.15;100.00;100492.38;6303290;28;20043;-74
2022/01/17 02:10:51;;;;;;;53.78;20.52;;;;;;;-2.18;100.00;100487.28;6319892;28;20129;-73
2022/01/17 02:13:52;;;;;;;65.13;20.95;;;;;;;-2.20;100.00;100463.41;6302998;28;20058;-69
2022/01/17 02:16:53;;;;;;;50.72;20.10;;;;;;;-2.39;100.00;100461.72;6320972;28;20438;-69
2022/01/17 02:20:04;;;;;;;58.25;21.42;;;;;;;-2.47;100.00;100459.19;6302641;28;20503;-73
2022/01/17 02:23:06;;;;;;;56.28;22.50;;;;;;;-2.45;100.00;100480.47;6320831;28;20097;-69
2022/01/17 02:26:08;;;;;;;55.63;20.98;;;;;;;-2.39;100.00;100489.84;6320958;28;20119;-69
2022/01/17 02:29:09;;;;;;;60.97;22.40;;;;;;;-2.27;100.00;100480.44;6319753;28;20093;-69
2022/01/17 02:32:10;;;;;;;64.20;22.20;;;;;;;-2.35;100.00;100489.00;6319427;28;20064;-73
2022/01/17 02:35:29;;;;;;;68.40;23.13;;;;;;;-2.23;100.00;100487.25;6319444;28;20066;-70
2022/01/17 02:38:30;;;;;;;59.20;21.95;;;;;;;-2.35;100.00;100484.72;6319414;28;20044;-69
2022/01/17 02:41:36;;;;;;;66.45;23.55;;;;;;;-2.27;100.00;100479.59;6320539;28;20051;-69
2022/01/17 02:44:44;;;;;;;61.72;23.30;;;;;;;-2.20;100.00;100473.63;6320435;28;20040;-69
2022/01/17 02:47:45;;;;;;;68.40;23.02;;;;;;;-2.16;100.00;100457.44;6320437;28;20051;-73
2022/01/17 02:50:46;;;;;;;66.28;23.02;;;;;;;-2.10;100.00;100457.44;6320303;28;20044;-69
2022/01/17 02:53:48;;;;;;;67.10;24.13;;;;;;;-2.14;100.00;100449.75;6320221;28;20101;-72
2022/01/17 02:56:49;;;;;;;70.07;24.83;;;;;;;-2.18;100.00;100443.81;6319211;28;20399;-73
2022/01/17 02:59:54;;;;;;;61.58;23.55;;;;;;;-2.31;100.00;100447.22;6319188;28;20126;-69
2022/01/17 03:02:55;;;;;;;63.63;24.45;;;;;;;-2.31;100.00;100440.41;6320221;28;20093;-69
2022/01/17 03:05:57;;;;;;;66.10;21.88;;;;;;;-2.28;100.00;100431.91;6320230;28;20048;-69
2022/01/17 03:08:58;;;;;;;61.47;22.15;;;;;;;-2.23;100.00;100448.06;6320249;28;20040;-73
2022/01/17 03:11:58;;;;;;;64.07;22.65;;;;;;;-2.20;100.00;100459.97;6319018;28;20553;-73
2022/01/17 03:14:59;;;;;;;65.15;23.05;;;;;;;-2.19;100.00;100464.25;6318968;28;20090;-73
2022/01/17 03:18:01;;;;;;;67.88;24.70;;;;;;;-2.25;100.00;100454.88;6320107;28;20437;-73
2022/01/17 03:21:01;;;;;;;66.50;24.23;;;;;;;-2.20;100.00;100439.53;6318879;28;20047;-70
2022/01/17 03:24:03;;;;;;;61.78;22.40;;;;;;;-2.24;100.00;100429.34;6319985;28;20050;-69
2022/01/17 03:27:04;;;;;;;68.23;23.87;;;;;;;-2.12;100.00;100436.13;6320137;28;20054;-73
2022/01/17 03:30:06;;;;;;;69.90;23.65;;;;;;;-2.15;100.00;100445.50;6318866;28;20276;-69
2022/01/17 03:33:10;;;;;;;66.15;23.40;;;;;;;-2.11;100.00;100447.19;6322245;28;20036;-69
2022/01/17 03:36:11;;;;;;;60.10;22.65;;;;;;;-2.15;100.00;100436.13;6324747;28;20039;-69
2022/01/17 03:39:12;;;;;;;68.68;24.05;;;;;;;-2.19;100.00;100419.09;6324980;28;20036;-69
2022/01/17 03:42:13;;;;;;;72.13;24.38;;;;;;;-2.17;100.00;100432.72;6324653;28;20040;-69
2022/01/17 03:45:15;;;;;;;63.43;25.37;;;;;;;-2.28;100.00;100445.53;6323468;28;20050;-69
2022/01/17 03:48:17;;;;;;;69.60;24.73;;;;;;;-2.23;100.00;100442.94;6306661;28;20047;-69
2022/01/17 03:51:18;;;;;;;;;;;;;;;-2.20;100.00;100439.53;6323684;28;20128;-70
2022/01/17 03:54:18;;;;;;;58.60;22.63;;;;;;;-2.12;100.00;100448.91;6324343;28;20383;-70
2022/01/17 03:57:19;;;;;;;64.78;24.02;;;;;;;-2.20;100.00;100434.41;6323066;28;20047;-73
2022/01/17 04:00:23;;;;;;;65.13;24.17;;;;;;;-2.19;100.00;100420.78;6323108;28;20385;-73
2022/01/17 04:03:25;;;;;;;65.22;22.98;;;;;;;-2.19;100.00;100428.47;6323025;28;20047;-73
2022/01/17 04:06:27;;;;;;;68.20;23.98;;;;;;;-2.23;100.00;100425.06;6322967;28;20124;-69
2022/01/17 04:09:27;;;;;;;56.63;22.42;;;;;;;-2.27;100.00;100416.53;6324055;28;20495;-69
2022/01/17 04:12:28;;;;;;;66.30;23.60;;;;;;;-2.28;100.00;100421.69;6322937;28;20040;-69
2022/01/17 04:15:31;;;;;;;70.90;24.20;;;;;;;-2.41;100.00;100407.22;6322905;28;20086;-69
2022/01/17 04:18:32;;;;;;;63.05;22.75;;;;;;;-2.42;100.00;100425.97;6323399;28;20048;-68
2022/01/17 04:21:35;;;;;;;65.25;23.38;;;;;;;-2.35;100.00;100428.50;6322785;28;20507;-70
2022/01/17 04:24:36;;;;;;;66.95;25.20;;;;;;;-2.30;100.00;100424.22;6322501;28;20048;-69
2022/01/17 04:27:37;;;;;;;63.30;22.92;;;;;;;-2.31;100.00;100424.22;6324197;28;20123;-73
2022/01/17 04:30:39;;;;;;;65.20;23.75;;;;;;;-2.28;100.00;100431.91;6322441;28;20040;-73
2022/01/17 04:33:40;;;;;;;59.55;23.25;;;;;;;-2.28;100.00;100429.34;6322543;28;20048;-69
2022/01/17 04:36:41;;;;;;;67.60;24.00;;;;;;;-2.39;100.00;100419.13;6322294;28;20040;-73
2022/01/17 04:39:42;;;;;;;62.97;23.50;;;;;;;-2.40;100.00;100430.22;6322396;28;20044;-73
2022/01/17 04:42:45;;;;;;;58.22;22.70;;;;;;;-2.31;100.00;100437.00;6323040;28;20051;-69
2022/01/17 04:45:48;;;;;;;56.65;21.95;;;;;;;-2.39;100.00;100429.34;6322108;28;20488;-73
2022/01/17 04:48:49;;;;;;;99.00;37.40;;;;;;;-2.53;100.00;100423.41;6323577;28;20083;-69
2022/01/17 04:51:53;;;;;;;60.08;25.35;;;;;;;-2.54;100.00;100434.50;6321935;28;20135;-73
2022/01/17 04:54:59;;;;;;;61.97;24.25;;;;;;;-2.56;100.00;100429.38;6322997;28;20123;-73
2022/01/17 04:58:00;;;;;;;59.78;23.73;;;;;;;-2.60;100.00;100426.84;6321902;28;20036;-69
2022/01/17 05:01:00;;;;;;;56.70;22.42;;;;;;;-2.64;100.00;100424.31;6321879;28;20508;-69
2022/01/17 05:04:01;;;;;;;67.20;24.88;;;;;;;-2.69;100.00;100414.94;6321563;28;20488;-69
2022/01/17 05:07:04;;;;;;;63.08;24.40;;;;;;;-2.71;100.00;100409.81;6323377;28;20044;-69
2022/01/17 05:10:08;;;;;;;60.95;22.92;;;;;;;-2.59;100.00;100418.31;6322460;28;20101;-69
2022/01/17 05:13:11;;;;;;;59.13;24.33;;;;;;;-2.66;100.00;100413.25;6323671;28;20067;-69
2022/01/17 05:16:14;;;;;;;;;;;;;;;-2.66;100.00;100408.13;6306122;28;20051;-69
2022/01/17 05:22:36;;;;;;;49.22;21.35;;;;;;;-2.77;100.00;100389.41;6323203;28;20055;-69
2022/01/17 05:25:37;;;;;;;;;;;;;;;-2.61;100.00;100392.78;6321815;28;20044;-69
2022/01/17 05:28:38;;;;;;;52.05;20.42;;;;;;;-2.60;100.00;100406.41;6322467;28;19973;-69
2022/01/17 05:31:39;;;;;;;55.45;21.50;;;;;;;-2.65;100.00;100408.97;6322880;28;20047;-70
2022/01/17 05:34:42;;;;;;;56.97;23.60;;;;;;;-2.65;100.00;100408.97;6323081;28;20044;-72
2022/01/17 05:37:44;;;;;;;67.28;25.35;;;;;;;-2.65;100.00;100414.94;6322937;28;20544;-68
2022/01/17 05:40:45;;;;;;;62.28;24.27;;;;;;;-2.64;100.00;100408.97;6321272;28;20040;-72
2022/01/17 05:43:46;;;;;;;61.42;22.83;;;;;;;-2.57;100.00;100403.81;6321885;28;20044;-73
2022/01/17 05:46:46;;;;;;;57.53;23.52;;;;;;;-2.46;100.00;100391.91;6303933;28;20404;-68
2022/01/17 05:49:47;;;;;;;63.90;24.40;;;;;;;-2.50;100.00;100385.94;6320422;28;20111;-69
2022/01/17 05:52:48;;;;;;;85.40;33.28;;;;;;;-2.46;100.00;100390.19;6321561;28;20044;-68
2022/01/17 05:55:49;;;;;;;63.60;26.52;;;;;;;-2.46;100.00;100394.44;6319626;28;20051;-73
2022/01/17 05:58:49;;;;;;;63.15;25.70;;;;;;;-2.40;100.00;100393.59;6321651;28;20093;-73
2022/01/17 06:01:50;;;;;;;63.38;26.13;;;;;;;-2.51;100.00;100380.81;6321536;28;20283;-72
2022/01/17 06:04:51;;;;;;;64.95;25.55;;;;;;;-2.54;100.00;100374.03;6321125;28;20484;-69
2022/01/17 06:07:52;;;;;;;60.08;24.98;;;;;;;-2.52;100.00;100351.88;6303273;28;20047;-68
2022/01/17 06:10:53;;;;;;;48.17;21.08;;;;;;;-2.57;100.00;100330.59;6320146;28;20085;-72
2022/01/17 06:13:54;;;;;;;61.92;23.65;;;;;;;-2.47;100.00;100326.28;6320124;28;20480;-68
2022/01/17 06:16:54;;;;;;;52.47;22.55;;;;;;;-2.48;100.00;100328.00;6303123;28;20533;-72
2022/01/17 06:19:55;;;;;;;67.32;23.27;;;;;;;-2.41;100.00;100327.97;6303091;28;20136;-73
2022/01/17 06:22:56;;;;;;;44.58;21.35;;;;;;;-2.52;100.00;100339.09;6319857;28;20131;-68
2022/01/17 06:25:56;;;;;;;54.08;22.80;;;;;;;-2.49;100.00;100325.44;6319878;28;20434;-69
2022/01/17 06:28:57;;;;;;;52.50;22.20;;;;;;;-2.49;100.00;100320.34;6319754;28;20055;-68
2022/01/17 06:31:58;;;;;;;39.45;18.30;;;;;;;-2.41;100.00;100304.97;6320989;28;20431;-68
2022/01/17 06:34:59;;;;;;;45.90;19.63;;;;;;;-2.46;100.00;100312.69;6319695;28;20044;-68
2022/01/17 06:37:59;;;;;;;49.33;21.35;;;;;;;-2.41;100.00;100316.06;6319875;28;20476;-69
2022/01/17 06:41:00;;;;;;;51.35;22.58;;;;;;;-2.27;100.00;100326.22;6319417;28;20047;-69
2022/01/17 06:44:01;;;;;;;54.60;23.13;;;;;;;-2.27;100.00;100319.41;6320322;28;20483;-69
2022/01/17 06:47:02;;;;;;;47.58;21.42;;;;;;;-2.33;100.00;100304.09;6315620;28;20511;-68
2022/01/17 06:50:04;;;;;;;48.65;19.10;;;;;;;-2.38;100.00;100297.31;6319761;28;20070;-69
2022/01/17 06:53:05;;;;;;;54.83;23.58;;;;;;;-2.24;100.00;100293.84;6319468;28;20126;-73
2022/01/17 06:56:06;;;;;;;55.08;25.13;;;;;;;-2.23;100.00;100284.47;6319967;28;20074;-72
2022/01/17 06:59:07;;;;;;;59.30;23.50;;;;;;;-2.20;100.00;100294.69;6319782;28;20040;-72
2022/01/17 07:02:08;;;;;;;39.20;17.98;;;;;;;-2.25;100.00;100299.78;6319323;28;20166;-72
2022/01/17 07:05:09;;;;;;;44.25;18.05;;;;;;;-2.19;100.00;100296.38;6319804;28;20044;-72
2022/01/17 07:08:10;;;;;;;50.08;22.00;;;;;;;-2.17;100.00;100307.44;6325164;28;20048;-72
2022/01/17 07:11:14;;;;;;;48.72;22.02;;;;;;;-2.07;100.00;100291.19;6307931;28;20052;-72
2022/01/17 07:14:15;;;;;;;48.42;20.88;;;;;;;-2.11;100.00;100286.09;6323833;28;20086;-72
2022/01/17 07:17:16;;;;;;;44.10;20.83;;;;;;;-2.14;100.00;100271.66;6324148;28;20036;-72
2022/01/17 07:20:17;;;;;;;56.30;22.92;;;;;;;-2.18;100.00;100266.53;6323079;28;20472;-73
2022/01/17 07:23:18;;;;;;;51.58;21.20;;;;;;;-2.03;100.00;100262.19;6324040;28;20488;-72
2022/01/17 07:26:18;;;;;;;45.58;20.40;;;;;;;-2.01;100.00;100269.84;6322748;28;20051;-73
2022/01/17 07:29:19;;;;;;;57.22;22.98;;;;;;;-1.99;100.00;100285.19;6323299;28;20487;-72
2022/01/17 07:32:22;;;;;;;51.40;21.85;;;;;;;-1.90;100.00;100300.47;6324724;28;20044;-72
2022/01/17 07:35:23;;;;;;;38.42;18.08;;;;;;;-1.88;100.00;100308.97;6324904;28;20043;-73
2022/01/17 07:38:23;;;;;;;46.20;20.35;;;;;;;-1.73;100.00;100343.84;6306633;28;20067;-68
2022/01/17 07:41:26;;;;;;;45.15;19.98;;;;;;;-1.66;100.00;100354.03;6323457;28;20044;-68
2022/01/17 07:44:28;;;;;;;47.05;21.10;;;;;;;-1.56;100.00;100342.06;6321187;28;20047;-68
2022/01/17 07:47:43;;;;;;;43.53;19.92;;;;;;;-1.60;100.00;100324.19;6322241;28;20361;-68
2022/01/17 07:50:46;;;;;;;49.10;19.45;;;;;;;-1.42;100.00;100312.09;6324834;28;20044;-72
2022/01/17 07:53:47;;;;;;;;;;;;;;;-1.30;100.00;100318.78;6324227;28;20514;-68
2022/01/17 07:56:47;;;;;;;41.58;18.50;;;;;;;-1.22;100.00;100304.22;6324934;28;19920;-69
2022/01/17 07:59:48;;;;;;;42.75;19.90;;;;;;;-1.28;100.00;100291.47;6324368;28;20594;-68
2022/01/17 08:02:50;;;;;;;57.25;26.42;;;;;;;-1.10;100.00;100264.00;6323027;28;20044;-69
2022/01/17 08:05:51;;;;;;;68.90;28.25;;;;;;;-1.03;100.00;100235.78;6324097;28;20048;-69
2022/01/17 08:08:52;;;;;;;58.30;24.02;;;;;;;-0.71;100.00;100219.16;6323748;28;20040;-69
2022/01/17 08:11:52;;;;;;;49.95;23.00;;;;;;;-0.65;100.00;100219.09;6324822;28;20392;-69
2022/01/17 08:14:57;;;;;;;45.45;20.08;;;;;;;-0.73;100.00;100217.50;6306762;28;20044;-69
2022/01/17 08:17:58;;;;;;;44.78;21.77;;;;;;;-0.51;100.00;100226.63;6323839;28;20047;-72
2022/01/17 08:20:59;;;;;;;45.65;20.30;;;;;;;-0.59;100.00;100233.56;6324682;28;20044;-69
2022/01/17 08:24:00;;;;;;;40.03;18.63;;;;;;;-0.32;100.00;100244.31;6322819;28;20040;-69
2022/01/17 08:27:01;;;;;;;39.90;20.50;;;;;;;-0.13;100.00;100234.66;6288466;28;20089;-72
2022/01/17 08:30:04;;;;;;;40.17;18.75;;;;;;;-0.14;100.00;100226.13;6305459;28;20111;-69
2022/01/17 08:33:04;;;;;;;;;;;;;;;0.25;100.00;100259.75;6323884;28;20545;-69
2022/01/17 08:36:07;;;;;;;41.55;17.35;;;;;;;0.46;100.00;100275.69;6322185;28;19934;-69
2022/01/17 08:39:10;;;;;;;37.92;18.17;;;;;;;0.28;100.00;100289.66;6323262;28;20048;-69
2022/01/17 08:42:12;;;;;;;45.45;21.20;;;;;;;0.73;100.00;100262.38;6323406;28;20040;-68
2022/01/17 08:45:15;;;;;;;42.33;20.38;;;;;;;0.79;100.00;100259.72;6305253;28;20486;-69
2022/01/17 08:48:16;;;;;;;46.92;21.05;;;;;;;0.79;100.00;100259.72;6305281;28;20052;-69
2022/01/17 08:51:17;;;;;;;46.83;22.17;;;;;;;1.36;100.00;100216.66;6322963;28;20127;-68
2022/01/17 08:54:18;;;;;;;41.42;21.40;;;;;;;1.07;100.00;100204.38;6317986;28;20040;-68
2022/01/17 08:57:19;;;;;;;44.83;20.90;;;;;;;1.02;100.00;100209.63;6322229;28;20055;-68
2022/01/17 09:00:20;;;;;;;42.92;19.80;;;;;;;0.71;100.00;100187.06;6287213;28;20143;-69
2022/01/17 09:03:21;;;;;;;42.65;20.27;;;;;;;0.70;100.00;100172.56;6322610;28;20057;-69
2022/01/17 09:06:25;;;;;;;33.92;14.25;;;;;;;0.69;100.00;100172.56;6321868;28;20089;-69
2022/01/17 09:09:27;;;;;;;41.65;19.13;;;;;;;0.73;100.00;100164.78;6322808;28;20047;-69
2022/01/17 09:12:27;;;;;;;35.03;17.55;;;;;;;0.72;100.00;100165.66;6321469;28;20036;-69
2022/01/17 09:15:29;;;;;;;38.55;17.63;;;;;;;1.02;100.00;100150.53;6323156;28;20036;-69
2022/01/17 09:18:30;;;;;;;36.85;17.83;;;;;;;1.05;100.00;100136.75;6321022;28;20036;-70
2022/01/17 09:21:31;;;;;;;36.08;18.00;;;;;;;0.93;100.00;100140.44;6320066;28;20128;-74
2022/01/17 09:24:34;;;;;;;43.83;20.20;;;;;;;0.92;100.00;100129.28;6319394;28;20070;-74
2022/01/17 09:27:36;;;;;;;44.95;21.50;;;;;;;0.96;100.00;100110.38;6321516;28;20036;-74
2022/01/17 09:30:37;;;;;;;49.78;24.15;;;;;;;1.29;100.00;100110.53;6318568;28;20547;-75
2022/01/17 09:33:38;;;;;;;50.50;26.27;;;;;;;1.49;100.00;100089.53;6321000;28;20044;-75
2022/01/17 09:36:39;;;;;;;55.83;24.17;;;;;;;1.46;100.00;100081.88;6320422;28;20047;-75
2022/01/17 09:39:40;;;;;;;52.47;23.17;;;;;;;1.51;100.00;100071.50;6303788;28;20117;-75
2022/01/17 09:42:41;;;;;;;34.05;18.50;;;;;;;1.46;100.00;100070.75;6321692;28;20412;-75
2022/01/17 09:45:41;;;;;;;48.45;22.98;;;;;;;1.47;100.00;100072.44;6321692;28;20267;-75
2022/01/17 09:48:47;;;;;;;44.75;21.30;;;;;;;1.33;100.00;100065.03;6303597;28;20408;-75
2022/01/17 09:55:12;;;;;;;36.92;17.55;;;;;;;1.48;100.00;100040.69;6321362;28;20087;-75
2022/01/17 09:58:15;;;;;;;34.20;16.67;;;;;;;1.37;100.00;100046.09;6321228;28;20070;-75
2022/01/17 10:01:16;;;;;;;39.80;18.88;;;;;;;1.32;100.00;100032.50;6320168;28;20051;-75
2022/01/17 10:04:17;;;;;;;28.60;15.55;;;;;;;1.47;100.00;100026.16;6321262;28;20075;-75
2022/01/17 10:07:18;;;;;;;22.23;10.93;;;;;;;1.48;100.00;100009.84;6321257;28;20400;-75
2022/01/17 10:10:45;;;;;;;24.83;12.45;;;;;;;1.60;100.00;100000.09;6319693;28;20044;-75
2022/01/17 10:13:47;;;;;;;19.67;10.63;;;;;;;1.67;100.00;100000.81;6321286;28;20488;-75
2022/01/17 10:16:48;;;;;;;20.42;10.75;;;;;;;1.85;100.00;99999.47;6319704;28;20075;-75
2022/01/17 10:20:03;;;;;;;18.15;9.85;;;;;;;1.74;100.00;99992.03;6320865;28;20040;-75
2022/01/17 10:23:29;;;;;;;22.30;10.77;;;;;;;1.80;100.00;99973.84;6320843;28;20389;-75
2022/01/17 10:36:03;;;;;;;19.13;9.80;;;;;;;2.13;100.00;99935.22;6320757;28;20040;-76
2022/01/17 10:39:06;;;;;;;20.38;10.35;;;;;;;2.02;100.00;99929.56;6319237;28;20040;-76
2022/01/17 10:42:28;;;;;;;18.75;9.00;;;;;;;2.04;100.00;99934.63;6320290;28;20044;-76
2022/01/17 10:45:33;;;;;;;19.00;9.03;;;;;;;2.01;100.00;99925.28;6320553;28;20051;-76
2022/01/17 10:48:44;;;;;;;16.70;9.40;;;;;;;2.03;100.00;99915.78;6302285;28;20507;-76
2022/01/17 10:51:45;;;;;;;17.48;8.73;;;;;;;2.04;100.00;99894.31;6320284;28;20127;-76
2022/01/17 10:54:48;;;;;;;15.38;8.60;;;;;;;2.24;100.00;99888.56;6320251;28;20256;-71
2022/01/17 10:57:52;;;;;;;18.10;8.07;;;;;;;2.50;100.00;99879.25;6320288;28;20040;-71
2022/01/17 11:01:01;;;;;;;12.25;7.15;;;;;;;2.61;100.00;99879.75;6319069;28;20048;-72
2022/01/17 11:04:08;;;;;;;15.23;8.07;;;;;;;2.84;100.00;99879.00;6320209;28;20036;-72
2022/01/17 11:07:09;;;;;;;14.27;8.35;;;;;;;2.88;100.00;99854.00;6302919;28;20047;-72
2022/01/17 11:10:22;;;;;;;15.48;7.95;;;;;;;3.07;100.00;99847.34;6320053;28;20040;-72
2022/01/17 11:13:29;;;;;;;12.85;6.20;;;;;;;2.90;100.00;99847.06;6320120;28;20404;-72
2022/01/17 11:16:32;;;;;;;11.38;6.70;;;;;;;2.85;100.00;99844.63;6320060;28;20075;-72
2022/01/17 11:22:56;;;;;;;12.13;6.78;;;;;;;2.70;100.00;99819.34;6318746;28;20070;-72
2022/01/17 11:25:58;;;;;;;11.95;6.32;;;;;;;2.74;100.00;99814.06;6320094;28;20044;-72
2022/01/17 11:28:59;;;;;;;13.70;7.22;;;;;;;2.85;100.00;99803.41;6318740;28;20036;-72
2022/01/17 11:32:01;;;;;;;12.30;7.07;;;;;;;2.97;100.00;99797.00;6317491;28;20040;-71
2022/01/17 11:35:04;;;;;;;13.07;7.03;;;;;;;2.97;100.00;99797.84;6318662;28;20050;-73
2022/01/17 11:38:05;;;;;;;12.13;6.50;;;;;;;2.91;100.00;99792.06;6318782;28;20102;-73
2022/01/17 11:41:19;;;;;;;9.60;5.63;;;;;;;2.85;100.00;99798.25;6318615;28;20044;-72
2022/01/17 11:44:35;;;;;;;11.90;6.53;;;;;;;2.88;100.00;99784.41;6319771;28;20071;-77
2022/01/17 11:47:54;;;;;;;10.85;6.38;;;;;;;2.73;100.00;99762.59;6319923;28;20047;-77
2022/01/17 11:51:11;;;;;;;13.60;6.15;;;;;;;2.96;100.00;99759.22;6318560;28;20510;-77
2022/01/17 11:54:15;;;;;;;10.60;5.70;;;;;;;2.95;100.00;99737.75;6322822;28;20052;-77
2022/01/17 11:57:21;;;;;;;12.85;6.50;;;;;;;3.04;100.00;99746.91;6324797;28;20036;-77
2022/01/17 12:00:29;;;;;;;10.32;5.75;;;;;;;2.97;100.00;99740.28;6324453;28;20396;-77
2022/01/17 12:03:45;;;;;;;13.00;6.20;;;;;;;2.97;100.00;99751.44;6324359;28;20055;-77
2022/01/17 12:06:59;;;;;;;10.50;5.85;;;;;;;3.02;100.00;99759.00;6324247;28;20050;-77
2022/01/17 12:10:07;;;;;;;9.00;5.57;;;;;;;2.92;100.00;99755.91;6324156;28;20079;-77
2022/01/17 12:13:11;;;;;;;11.52;5.88;;;;;;;2.89;100.00;99745.72;6322728;28;20077;-77
2022/01/17 12:19:16;;;;;;;11.18;6.45;;;;;;;2.75;100.00;99706.69;6319411;28;20079;-77
2022/01/17 12:22:17;;;;;;;9.23;5.10;;;;;;;2.81;100.00;99716.78;6320920;28;20415;-77
2022/01/17 12:25:24;;;;;;;13.13;6.72;;;;;;;2.86;100.00;99708.88;6321868;28;20043;-77
2022/01/17 12:28:25;;;;;;;10.90;5.97;;;;;;;2.82;100.00;99692.69;6322816;28;20056;-77
2022/01/17 12:31:46;;;;;;;11.02;6.03;;;;;;;2.81;100.00;99673.81;6322248;28;20038;-77
2022/01/17 12:34:47;;;;;;;10.13;5.10;;;;;;;2.80;100.00;99671.28;6324345;28;20488;-77
2022/01/17 12:37:50;;;;;;;10.88;6.10;;;;;;;2.84;100.00;99659.97;6322940;28;20047;-77
2022/01/17 12:40:51;;;;;;;13.88;6.15;;;;;;;2.83;100.00;99666.88;6320314;28;20456;-77
2022/01/17 12:43:51;;;;;;;10.30;6.35;;;;;;;2.82;100.00;99677.22;6320477;28;20043;-77
2022/01/17 12:46:54;;;;;;;9.73;4.90;;;;;;;2.87;100.00;99693.38;6320019;28;20044;-77
2022/01/17 12:49:55;;;;;;;13.38;6.30;;;;;;;2.86;100.00;99673.63;6305493;28;20082;-77
2022/01/17 12:52:58;;;;;;;14.57;6.35;;;;;;;2.87;100.00;99659.03;6321563;28;20407;-77
2022/01/17 12:56:01;;;;;;;11.55;5.53;;;;;;;2.92;100.00;99659.72;6323999;28;20043;-76
2022/01/17 12:59:02;;;;;;;15.13;6.82;;;;;;;2.96;100.00;99640.66;6322780;28;20048;-77
2022/01/17 13:02:04;;;;;;;13.48;7.00;;;;;;;2.99;100.00;99615.63;6301074;28;20044;-77
2022/01/17 13:05:05;;;;;;;9.85;5.13;;;;;;;2.91;100.00;99609.91;6304519;28;20044;-76
2022/01/17 13:08:06;;;;;;;13.55;6.47;;;;;;;2.90;100.00;99600.47;6321573;28;20066;-77
2022/01/17 13:11:15;;;;;;;9.52;5.43;;;;;;;2.94;100.00;99602.03;6321355;28;20094;-76
2022/01/17 13:14:19;;;;;;;6.85;4.10;;;;;;;2.98;100.00;99589.91;6322928;28;20051;-71
2022/01/17 13:17:19;;;;;;;9.70;5.95;;;;;;;3.00;99.34;99603.56;6322328;28;20400;-72
2022/01/17 13:20:23;;;;;;;8.13;5.00;;;;;;;2.99;99.33;99610.47;6322461;28;20480;-71
2022/01/17 13:23:36;;;;;;;12.50;6.30;;;;;;;3.12;97.99;99599.69;6321042;28;20400;-72
2022/01/17 13:26:41;;;;;;;9.27;5.18;;;;;;;3.09;98.24;99584.34;6322832;28;20573;-73
2022/01/17 13:29:44;;;;;;;10.40;5.40;;;;;;;3.14;97.55;99578.13;6318356;28;20044;-76
2022/01/17 13:32:47;;;;;;;7.20;4.43;;;;;;;3.06;98.28;99562.09;6321505;28;20052;-72
2022/01/17 13:35:53;;;;;;;10.05;5.60;;;;;;;3.06;98.71;99569.81;6320877;28;20056;-71
2022/01/17 13:39:02;;;;;;;8.93;5.22;;;;;;;3.09;97.91;99562.00;6321173;28;20408;-72
2022/01/17 13:42:04;;;;;;;10.23;5.38;;;;;;;3.08;97.98;99562.03;6322227;28;20047;-71
2022/01/17 13:45:06;;;;;;;9.45;5.47;;;;;;;3.16;97.28;99560.84;6300424;28;20559;-76
2022/01/17 13:48:13;;;;;;;10.20;4.38;;;;;;;3.08;97.92;99549.16;6320312;28;20798;-76
2022/01/17 13:51:15;;;;;;;11.27;4.88;;;;;;;3.11;97.73;99543.88;6321247;28;20036;-76
2022/01/17 13:54:27;;;;;;;11.27;4.30;;;;;;;3.09;98.44;99549.09;6319058;28;20409;-77
2022/01/17 13:57:28;;;;;;;12.07;5.63;;;;;;;3.01;98.91;99517.63;6318579;28;20036;-76
2022/01/17 14:00:34;;;;;;;12.70;5.97;;;;;;;3.00;99.32;99508.19;6320059;28;20086;-76
2022/01/17 14:03:39;;;;;;;9.45;5.13;;;;;;;2.96;99.36;99499.75;6320257;28;20048;-76
2022/01/17 14:06:40;;;;;;;8.10;4.63;;;;;;;3.09;96.69;99492.41;6321319;28;20376;-76
2022/01/17 14:09:42;;;;;;;9.13;5.45;;;;;;;3.08;97.21;99484.72;6321188;28;20131;-76
2022/01/17 14:12:43;;;;;;;5.20;3.70;;;;;;;3.07;96.89;99501.06;6319880;28;20040;-76
2022/01/17 14:15:43;;;;;;;10.45;5.28;;;;;;;3.18;96.38;99491.19;6320480;28;20326;-76
2022/01/17 14:18:50;;;;;;;12.23;5.35;;;;;;;3.21;95.95;99496.22;6321048;28;20123;-76
2022/01/17 14:22:06;;;;;;;8.02;4.60;;;;;;;3.26;95.20;99499.47;6321604;28;20396;-76
2022/01/17 14:25:17;;;;;;;6.97;3.95;;;;;;;3.34;94.10;99504.31;6319747;28;20040;-71